Time;durP1;ratioP1;P1;durP2;ratioP2;P2;SDS_P1;SDS_P2;PMS_P1;PMS_P2;Temp;Humidity;BMP_temperature;BMP_pressure;BME280_temperature;BME280_humidity;BME280_pressure;Samples;Min_cycle;Max_cycle;Signal;HPM_P1;HPM_P2
2022/11/05 00:09:28;;;;;;;16.75;5.28;;;6.50;99.90;;;;;;5091233;28;20091;-86
2022/11/05 00:17:30;;;;;;;8.13;4.35;;;6.80;99.90;;;;;;5080241;28;20465;-86
2022/11/05 00:19:55;;;;;;;11.65;4.85;;;6.80;99.90;;;;;;5061374;28;20047;-86
2022/11/05 00:25:17;;;;;;;14.70;5.30;;;6.90;99.90;;;;;;5094791;28;20043;-86
2022/11/05 00:27:53;;;;;;;9.23;3.95;;;6.80;99.90;;;;;;5094134;28;20411;-86
2022/11/05 00:30:23;;;;;;;8.10;3.65;;;6.80;99.90;;;;;;5061506;28;20058;-87
2022/11/05 00:32:49;;;;;;;8.85;3.85;;;6.70;99.90;;;;;;5079106;28;20407;-86
2022/11/05 00:35:16;;;;;;;6.70;3.50;;;6.70;99.90;;;;;;5071475;28;20472;-86
2022/11/05 00:37:41;;;;;;;13.18;3.85;;;6.60;99.90;;;;;;5080092;28;20054;-86
2022/11/05 00:40:08;;;;;;;6.80;4.00;;;6.50;99.90;;;;;;5062056;28;20044;-86
2022/11/05 00:45:17;;;;;;;7.32;3.17;;;6.40;99.90;;;;;;5080688;28;20087;-86
2022/11/05 00:50:27;;;;;;;9.00;3.10;;;6.30;99.90;;;;;;5094566;28;20086;-87
2022/11/05 00:52:54;;;;;;;7.32;3.28;;;6.40;99.90;;;;;;5077432;28;20164;-86
2022/11/05 00:55:37;;;;;;;7.47;3.63;;;6.40;99.90;;;;;;5081865;28;20052;-86
2022/11/05 00:58:05;;;;;;;11.70;3.28;;;6.30;99.90;;;;;;5096219;28;20104;-87
2022/11/05 01:00:31;;;;;;;9.48;3.20;;;6.40;99.90;;;;;;5065945;28;20051;-87
2022/11/05 01:02:58;;;;;;;8.85;3.75;;;6.40;99.90;;;;;;5067724;28;20064;-86
2022/11/05 01:05:24;;;;;;;7.72;2.88;;;6.30;99.90;;;;;;5064939;28;20048;-85
2022/11/05 01:07:51;;;;;;;9.38;3.25;;;6.30;99.90;;;;;;5084775;28;20071;-87
2022/11/05 01:10:17;;;;;;;4.90;2.80;;;6.20;99.90;;;;;;5082080;28;20067;-87
2022/11/05 01:12:43;;;;;;;7.88;2.72;;;6.20;99.90;;;;;;5066341;28;20047;-86
2022/11/05 01:15:09;;;;;;;7.05;3.13;;;6.20;99.90;;;;;;5084525;28;20444;-86
2022/11/05 01:17:34;;;;;;;8.20;2.85;;;6.20;99.90;;;;;;5082514;28;20052;-85
2022/11/05 01:20:00;;;;;;;7.90;3.10;;;7.50;99.90;;;;;;5066862;28;20054;-87
2022/11/05 01:22:25;;;;;;;9.20;3.00;;;6.30;99.90;;;;;;5084205;28;20040;-86
2022/11/05 01:24:53;;;;;;;7.97;2.97;;;6.20;99.90;;;;;;5104790;28;20107;-86
2022/11/05 01:27:18;;;;;;;8.70;3.10;;;6.20;99.90;;;;;;5116069;28;20027;-84
2022/11/05 01:29:44;;;;;;;10.95;2.97;;;6.20;99.90;;;;;;5105066;28;20301;-86
2022/11/05 01:32:09;;;;;;;7.47;3.13;;;6.50;99.90;;;;;;5126662;28;20054;-86
2022/11/05 01:34:35;;;;;;;8.65;3.15;;;6.90;99.90;;;;;;5097915;28;20098;-86
2022/11/05 01:37:01;;;;;;;12.18;3.20;;;6.30;99.90;;;;;;5111328;28;20488;-87
2022/11/05 01:39:26;;;;;;;6.05;3.05;;;6.30;99.90;;;;;;5094343;28;20040;-86
2022/11/05 01:41:52;;;;;;;9.82;3.13;;;6.30;99.90;;;;;;5077089;28;20047;-86
2022/11/05 01:44:55;;;;;;;6.57;3.20;;;6.30;99.90;;;;;;5060704;28;20519;-86
2022/11/05 01:47:34;;;;;;;7.95;3.50;;;6.20;99.90;;;;;;5093968;28;20491;-86
2022/11/05 01:50:08;;;;;;;9.00;3.28;;;6.30;99.90;;;;;;5077823;28;20117;-86
2022/11/05 01:52:34;;;;;;;6.97;3.33;;;6.20;99.90;;;;;;5060357;28;20500;-86
2022/11/05 01:55:00;;;;;;;7.82;3.20;;;7.00;99.90;;;;;;5076971;28;20129;-86
2022/11/05 01:57:26;;;;;;;8.63;3.40;;;6.10;99.90;;;;;;5060602;28;20052;-86
2022/11/05 01:59:53;;;;;;;6.53;3.17;;;6.20;99.90;;;;;;5076830;28;20476;-86
2022/11/05 02:02:19;;;;;;;7.78;3.47;;;6.20;99.90;;;;;;5060500;28;20070;-86
2022/11/05 02:04:52;;;;;;;8.00;3.17;;;6.10;99.90;;;;;;5043918;28;20056;-86
2022/11/05 02:07:18;;;;;;;7.60;3.45;;;6.10;99.90;;;;;;5077792;28;20411;-86
2022/11/05 02:10:04;;;;;;;12.98;3.38;;;6.10;99.90;;;;;;5060204;28;20052;-85
2022/11/05 02:12:30;;;;;;;7.22;2.88;;;6.10;99.90;;;;;;5076857;28;20059;-86
2022/11/05 02:14:56;;;;;;;7.07;3.45;;;6.00;99.90;;;;;;5060321;28;20051;-86
2022/11/05 02:17:44;;;;;;;8.80;3.35;;;6.50;99.90;;;;;;5093984;28;20101;-86
2022/11/05 02:20:24;;;;;;;5.25;3.28;;;6.00;99.90;;;;;;5078376;28;20063;-86
2022/11/05 02:23:12;;;;;;;12.00;4.15;;;6.00;99.90;;;;;;5093130;28;20083;-86
2022/11/05 02:25:40;;;;;;;4.75;2.97;;;6.00;99.90;;;;;;5076776;28;20055;-86
2022/11/05 02:28:09;;;;;;;7.50;3.60;;;6.10;99.90;;;;;;5075863;28;20438;-86
2022/11/05 02:30:40;;;;;;;13.30;4.10;;;6.00;99.90;;;;;;5076814;28;20564;-86
2022/11/05 02:33:09;;;;;;;8.80;4.45;;;6.00;99.90;;;;;;5062680;28;20492;-86
2022/11/05 02:35:50;;;;;;;9.48;3.70;;;6.00;99.90;;;;;;5079854;28;20541;-86
2022/11/05 02:38:51;;;;;;;9.82;3.53;;;6.00;99.90;;;;;;5113170;28;20043;-86
2022/11/05 02:41:34;;;;;;;9.85;3.83;;;6.00;99.90;;;;;;5085889;28;20065;-85
2022/11/05 02:44:18;;;;;;;9.15;3.83;;;6.80;99.90;;;;;;5081726;28;20051;-86
2022/11/05 02:46:53;;;;;;;12.68;4.30;;;6.00;99.90;;;;;;5111606;28;20052;-87
2022/11/05 02:49:43;;;;;;;9.85;4.00;;;6.20;99.90;;;;;;5065895;28;20082;-85
2022/11/05 02:52:17;;;;;;;7.30;4.53;;;6.10;99.90;;;;;;5075501;28;20048;-86
2022/11/05 02:54:45;;;;;;;12.00;5.00;;;6.00;99.90;;;;;;5059972;28;20044;-86
2022/11/05 02:57:10;;;;;;;10.65;4.82;;;6.10;99.90;;;;;;5092468;28;20087;-86
2022/11/05 02:59:36;;;;;;;13.00;5.25;;;6.10;99.90;;;;;;5075964;28;20109;-86
2022/11/05 03:02:01;;;;;;;12.75;5.03;;;6.10;99.90;;;;;;5075400;28;20083;-86
2022/11/05 03:04:27;;;;;;;10.70;4.88;;;6.10;99.90;;;;;;5059211;28;20144;-87
2022/11/05 03:07:09;;;;;;;9.57;5.47;;;6.10;99.90;;;;;;5059237;28;20059;-86
2022/11/05 03:09:40;;;;;;;10.82;5.50;;;6.10;99.90;;;;;;5076055;28;20083;-86
2022/11/05 03:12:27;;;;;;;13.05;5.47;;;6.10;99.90;;;;;;5092983;28;20052;-86
2022/11/05 03:15:06;;;;;;;11.07;4.88;;;6.10;99.90;;;;;;5095303;28;20278;-86
2022/11/05 03:17:46;;;;;;;10.48;5.28;;;6.10;99.90;;;;;;5076463;28;20048;-86
2022/11/05 03:20:25;;;;;;;11.18;5.07;;;6.00;99.90;;;;;;5092662;28;20402;-86
2022/11/05 03:22:52;;;;;;;9.82;4.93;;;6.00;99.90;;;;;;5075765;28;20094;-86
2022/11/05 03:25:20;;;;;;;10.43;4.97;;;6.00;99.90;;;;;;5063276;28;20160;-86
2022/11/05 03:27:47;;;;;;;8.68;4.88;;;6.00;99.90;;;;;;5062491;28;20131;-85
2022/11/05 03:30:13;;;;;;;6.68;4.75;;;5.90;99.90;;;;;;5063465;28;20075;-86
2022/11/05 03:32:44;;;;;;;17.23;5.50;;;5.90;99.90;;;;;;5063699;28;20052;-86
2022/11/05 03:35:17;;;;;;;10.25;6.18;;;5.90;99.90;;;;;;5063627;28;20443;-86
2022/11/05 03:37:43;;;;;;;9.70;4.95;;;5.90;99.90;;;;;;5063426;28;20052;-86
2022/11/05 03:40:09;;;;;;;11.98;5.05;;;6.10;99.90;;;;;;5060539;28;20059;-86
2022/11/05 03:42:35;;;;;;;7.78;4.90;;;5.80;99.90;;;;;;5059437;28;20059;-85
2022/11/05 03:45:05;;;;;;;12.07;5.32;;;6.70;99.90;;;;;;5048091;28;20051;-86
2022/11/05 03:47:36;;;;;;;7.68;5.13;;;5.80;99.90;;;;;;5076729;28;20087;-85
2022/11/05 03:50:19;;;;;;;11.85;5.40;;;6.40;99.90;;;;;;5063432;28;20523;-85
2022/11/05 03:52:52;;;;;;;11.63;5.53;;;5.90;99.90;;;;;;5092805;28;20036;-86
2022/11/05 03:55:21;;;;;;;16.15;5.15;;;5.90;99.90;;;;;;5083637;28;20048;-85
2022/11/05 03:57:47;;;;;;;17.63;5.22;;;5.90;99.90;;;;;;5082852;28;20039;-85
2022/11/05 04:00:12;;;;;;;10.48;5.25;;;5.80;99.90;;;;;;5048156;28;20040;-86
2022/11/05 04:02:38;;;;;;;9.43;5.72;;;5.80;99.90;;;;;;5042175;28;20040;-85
2022/11/05 04:05:04;;;;;;;11.98;4.85;;;5.90;99.90;;;;;;5076984;28;20101;-86
2022/11/05 04:18:26;;;;;;;7.28;5.30;;;5.80;99.90;;;;;;5091972;28;20087;-86
2022/11/05 04:26:22;;;;;;;8.90;5.38;;;5.80;99.90;;;;;;5062591;28;20480;-86
2022/11/05 04:31:33;;;;;;;11.95;6.32;;;5.90;99.90;;;;;;5063248;28;20052;-86
2022/11/05 04:33:59;;;;;;;14.07;6.78;;;5.90;99.90;;;;;;5041108;28;20048;-86
2022/11/05 04:36:25;;;;;;;13.20;6.82;;;5.80;99.90;;;;;;5090830;28;20087;-86
2022/11/05 04:38:50;;;;;;;11.25;6.93;;;6.60;99.90;;;;;;5085843;28;20040;-86
2022/11/05 04:41:16;;;;;;;13.95;6.47;;;5.80;99.90;;;;;;5077983;28;20043;-86
2022/11/05 04:43:42;;;;;;;18.52;6.88;;;5.80;99.90;;;;;;5094860;28;20130;-86
2022/11/05 04:46:08;;;;;;;8.15;6.18;;;5.80;99.90;;;;;;5094648;28;20044;-86
2022/11/05 04:48:34;;;;;;;14.32;6.40;;;5.80;99.90;;;;;;5077590;28;20592;-85
2022/11/05 04:50:59;;;;;;;8.50;5.85;;;5.70;99.90;;;;;;5111055;28;20098;-86
2022/11/05 04:53:25;;;;;;;9.02;6.05;;;5.80;99.90;;;;;;5111338;28;20056;-86
2022/11/05 04:55:50;;;;;;;15.90;6.45;;;5.70;99.90;;;;;;5094520;28;20088;-86
2022/11/05 04:58:16;;;;;;;11.95;6.57;;;5.70;99.90;;;;;;5094177;28;20126;-86
2022/11/05 05:00:42;;;;;;;9.82;6.53;;;6.10;99.90;;;;;;5078205;28;20130;-86
2022/11/05 05:03:07;;;;;;;11.65;6.15;;;5.70;99.90;;;;;;5081295;28;20059;-85
2022/11/05 05:05:33;;;;;;;15.35;6.95;;;5.70;99.90;;;;;;5098440;28;20044;-85
2022/11/05 05:08:03;;;;;;;13.80;6.70;;;5.60;99.90;;;;;;5097920;28;20051;-85
2022/11/05 05:10:30;;;;;;;10.38;6.10;;;5.60;99.90;;;;;;5122669;28;20028;-85
2022/11/05 05:12:56;;;;;;;11.93;6.00;;;5.60;99.90;;;;;;5106272;28;20035;-85
2022/11/05 05:15:22;;;;;;;15.18;5.95;;;5.60;99.90;;;;;;5122103;28;20472;-86
2022/11/05 05:17:52;;;;;;;12.55;5.65;;;5.60;99.90;;;;;;5081178;28;20046;-85
2022/11/05 05:23:02;;;;;;;11.07;6.15;;;5.60;99.90;;;;;;5106419;28;20055;-85
2022/11/05 05:25:28;;;;;;;11.48;7.10;;;5.60;99.90;;;;;;5111362;28;20047;-86
2022/11/05 05:27:57;;;;;;;11.13;6.32;;;5.60;99.90;;;;;;5064490;28;20066;-86
2022/11/05 05:30:23;;;;;;;13.52;6.80;;;5.50;99.90;;;;;;5114408;28;20490;-86
2022/11/05 05:32:49;;;;;;;10.88;6.35;;;5.50;99.90;;;;;;5097882;28;20134;-86
2022/11/05 05:35:15;;;;;;;13.43;6.63;;;5.60;99.90;;;;;;5097617;28;20047;-86
2022/11/05 05:37:40;;;;;;;11.68;6.32;;;5.60;99.90;;;;;;5097779;28;20134;-84
2022/11/05 05:40:07;;;;;;;8.63;6.00;;;5.60;99.90;;;;;;5112450;28;20047;-85
2022/11/05 05:42:33;;;;;;;8.82;5.75;;;5.60;99.90;;;;;;5082450;28;20116;-84
2022/11/05 05:44:59;;;;;;;8.38;5.88;;;5.60;99.90;;;;;;5088350;28;20128;-84
2022/11/05 05:47:24;;;;;;;15.43;6.38;;;5.60;99.90;;;;;;5096460;28;20490;-84
2022/11/05 05:49:50;;;;;;;10.15;6.40;;;5.60;99.90;;;;;;5060092;28;20122;-84
2022/11/05 05:52:16;;;;;;;10.07;5.88;;;6.10;99.90;;;;;;5060321;28;20117;-84
2022/11/05 05:54:42;;;;;;;14.73;6.32;;;6.10;99.90;;;;;;5060810;28;20051;-84
2022/11/05 05:57:07;;;;;;;9.30;6.38;;;5.50;99.90;;;;;;5076883;28;20044;-83
2022/11/05 05:59:33;;;;;;;9.73;5.55;;;6.30;99.90;;;;;;5093806;28;20065;-83
2022/11/05 06:01:59;;;;;;;8.73;6.20;;;5.50;99.90;;;;;;5093689;28;20094;-83
2022/11/05 06:04:25;;;;;;;8.07;6.10;;;5.40;99.90;;;;;;5076692;28;20411;-85
2022/11/05 06:06:52;;;;;;;11.75;6.57;;;6.20;99.90;;;;;;5076761;28;20048;-85
2022/11/05 06:09:18;;;;;;;11.43;6.13;;;5.40;99.90;;;;;;5094013;28;20087;-85
2022/11/05 06:11:43;;;;;;;11.02;6.38;;;5.40;99.90;;;;;;5077177;28;20132;-84
2022/11/05 06:14:11;;;;;;;12.68;5.85;;;5.40;99.90;;;;;;5076773;28;20059;-84
2022/11/05 06:16:37;;;;;;;10.35;6.13;;;5.40;99.90;;;;;;5059760;28;20399;-85
2022/11/05 06:19:04;;;;;;;8.88;6.13;;;5.40;99.90;;;;;;5097988;28;20044;-85
2022/11/05 06:21:30;;;;;;;7.75;5.97;;;6.40;99.90;;;;;;5096769;28;20523;-85
2022/11/05 06:23:55;;;;;;;11.55;6.07;;;5.40;99.90;;;;;;5101292;28;20040;-85
2022/11/05 06:26:22;;;;;;;16.15;6.50;;;5.30;99.90;;;;;;5117551;28;20063;-85
2022/11/05 06:28:48;;;;;;;10.40;6.40;;;5.30;99.90;;;;;;5112307;28;20051;-85
2022/11/05 06:31:13;;;;;;;10.73;6.30;;;5.30;99.90;;;;;;5076451;28;20044;-85
2022/11/05 06:33:39;;;;;;;11.52;6.40;;;5.40;99.90;;;;;;5092667;28;20130;-85
2022/11/05 06:36:06;;;;;;;16.13;6.50;;;5.30;99.90;;;;;;5076207;28;20048;-85
2022/11/05 06:38:33;;;;;;;13.93;6.55;;;5.30;99.90;;;;;;5076897;28;20051;-85
2022/11/05 06:40:59;;;;;;;11.80;6.40;;;5.30;99.90;;;;;;5064445;28;20051;-84
2022/11/05 06:43:25;;;;;;;13.15;6.10;;;6.10;99.90;;;;;;5061529;28;20048;-87
2022/11/05 06:45:50;;;;;;;11.80;6.25;;;5.30;99.90;;;;;;5078670;28;20160;-85
2022/11/05 06:48:16;;;;;;;11.85;6.30;;;5.50;99.90;;;;;;5065677;28;20039;-86
2022/11/05 06:50:45;;;;;;;15.85;6.88;;;5.40;99.90;;;;;;5076133;28;20189;-85
2022/11/05 06:53:11;;;;;;;12.25;7.05;;;5.40;99.90;;;;;;5075786;28;20487;-86
2022/11/05 06:55:36;;;;;;;21.08;7.32;;;5.40;99.90;;;;;;5075590;28;20164;-86
2022/11/05 06:58:02;;;;;;;13.40;6.82;;;5.50;99.90;;;;;;5075729;28;20044;-86
2022/11/05 07:00:27;;;;;;;12.05;7.38;;;6.70;99.90;;;;;;5058426;28;20062;-86
2022/11/05 07:02:55;;;;;;;11.45;6.85;;;6.00;99.90;;;;;;5075931;28;20047;-86
2022/11/05 07:05:21;;;;;;;10.68;7.00;;;5.50;99.90;;;;;;5075186;28;20130;-85
2022/11/05 07:07:47;;;;;;;10.95;6.93;;;5.60;99.90;;;;;;5075287;28;20158;-86
2022/11/05 07:10:14;;;;;;;15.43;6.88;;;5.60;99.90;;;;;;5075610;28;20056;-86
2022/11/05 07:12:40;;;;;;;15.32;6.82;;;5.70;99.90;;;;;;5075122;28;20047;-86
2022/11/05 07:15:06;;;;;;;11.80;6.63;;;5.70;99.90;;;;;;5092289;28;20044;-87
2022/11/05 07:17:32;;;;;;;9.57;6.72;;;5.80;99.90;;;;;;5042361;28;20058;-84
2022/11/05 07:19:57;;;;;;;13.23;6.93;;;5.80;99.90;;;;;;5075439;28;20047;-84
2022/11/05 07:22:23;;;;;;;12.30;7.10;;;5.80;99.90;;;;;;5091564;28;20055;-85
2022/11/05 07:24:49;;;;;;;11.77;7.10;;;5.80;99.90;;;;;;5074164;28;20059;-84
2022/11/05 07:27:15;;;;;;;12.75;7.82;;;7.00;99.90;;;;;;5091655;28;20455;-85
2022/11/05 07:29:41;;;;;;;10.50;6.80;;;6.30;99.90;;;;;;5058072;28;20123;-84
2022/11/05 07:32:06;;;;;;;11.70;6.50;;;6.00;99.90;;;;;;5058621;28;20086;-85
2022/11/05 07:34:32;;;;;;;8.60;6.07;;;6.10;99.90;;;;;;5074285;28;20157;-85
2022/11/05 07:36:57;;;;;;;11.10;6.28;;;6.50;99.90;;;;;;5098421;28;20091;-84
2022/11/05 07:39:23;;;;;;;8.00;5.50;;;6.80;99.90;;;;;;5116378;28;20018;-84
2022/11/05 07:41:53;;;;;;;9.98;5.57;;;6.80;99.90;;;;;;5116070;28;20040;-85
2022/11/05 07:44:22;;;;;;;10.45;5.40;;;6.90;99.90;;;;;;5104993;28;20044;-85
2022/11/05 07:46:49;;;;;;;8.25;5.38;;;6.90;99.90;;;;;;5074727;28;20052;-85
2022/11/05 07:49:14;;;;;;;8.10;5.65;;;7.40;99.90;;;;;;5091633;28;20138;-84
2022/11/05 07:51:40;;;;;;;9.52;5.18;;;7.20;99.90;;;;;;5057378;28;20471;-84
2022/11/05 07:54:05;;;;;;;7.50;4.65;;;7.20;99.90;;;;;;5074331;28;20451;-85
2022/11/05 07:56:31;;;;;;;9.02;5.15;;;7.30;99.90;;;;;;5057504;28;20059;-84
2022/11/05 07:58:57;;;;;;;8.13;4.72;;;7.30;99.90;;;;;;5074239;28;20379;-84
2022/11/05 08:01:22;;;;;;;7.35;4.32;;;7.30;99.90;;;;;;5092949;28;20047;-83
2022/11/05 08:03:48;;;;;;;5.68;4.57;;;7.40;99.90;;;;;;5097059;28;20028;-85
2022/11/05 08:06:14;;;;;;;8.07;4.60;;;7.50;99.90;;;;;;5092531;28;20087;-84
2022/11/05 08:08:39;;;;;;;10.25;4.80;;;7.40;99.90;;;;;;5074531;28;20048;-84
2022/11/05 08:11:06;;;;;;;7.68;4.20;;;7.50;99.90;;;;;;5074537;28;20064;-85
2022/11/05 08:13:32;;;;;;;5.75;4.15;;;7.70;99.90;;;;;;5057502;28;20044;-85
2022/11/05 08:15:58;;;;;;;5.55;4.15;;;7.70;99.90;;;;;;5074434;28;20051;-85
2022/11/05 08:18:30;;;;;;;6.18;4.60;;;7.70;99.90;;;;;;5074446;28;20105;-85
2022/11/05 08:20:58;;;;;;;8.40;4.30;;;7.70;99.90;;;;;;5074989;28;20044;-84
2022/11/05 08:23:25;;;;;;;6.70;4.32;;;7.80;99.90;;;;;;5058025;28;20629;-85
2022/11/05 08:25:51;;;;;;;8.52;4.60;;;7.90;99.90;;;;;;5074082;28;20126;-85
2022/11/05 08:28:18;;;;;;;7.28;4.47;;;7.90;99.90;;;;;;5090791;28;20040;-85
2022/11/05 08:30:48;;;;;;;8.93;4.35;;;7.90;99.90;;;;;;5090862;28;20257;-85
2022/11/05 08:33:13;;;;;;;6.50;4.38;;;7.90;99.90;;;;;;5058019;28;20044;-84
2022/11/05 08:35:39;;;;;;;8.13;4.20;;;7.90;99.90;;;;;;5100102;28;20420;-85
2022/11/05 08:38:05;;;;;;;6.38;4.55;;;8.00;99.90;;;;;;5089925;28;20408;-85
2022/11/05 08:40:32;;;;;;;6.65;4.40;;;8.10;99.90;;;;;;5070567;28;20047;-85
2022/11/05 08:42:58;;;;;;;11.07;4.50;;;8.40;99.90;;;;;;5086432;28;20047;-89
2022/11/05 08:45:25;;;;;;;9.75;4.32;;;8.70;99.90;;;;;;5081554;28;20443;-91
2022/11/05 08:47:56;;;;;;;6.32;3.63;;;9.00;99.90;;;;;;5084722;28;20040;-85
2022/11/05 08:50:22;;;;;;;8.18;4.18;;;9.20;99.90;;;;;;5077475;28;20067;-85
2022/11/05 08:52:48;;;;;;;6.65;4.13;;;9.50;99.90;;;;;;5095635;28;20325;-84
2022/11/05 08:55:17;;;;;;;8.98;3.88;;;9.70;99.90;;;;;;5102216;28;20044;-85
2022/11/05 08:57:45;;;;;;;5.80;3.95;;;10.20;99.90;;;;;;5115592;28;20040;-85
2022/11/05 09:00:11;;;;;;;6.43;4.10;;;10.60;99.90;;;;;;5088809;28;20047;-89
2022/11/05 09:02:36;;;;;;;7.82;3.63;;;10.90;99.90;;;;;;5087223;28;20044;-89
2022/11/05 09:05:02;;;;;;;6.00;3.85;;;10.90;99.90;;;;;;5105062;28;20105;-88
2022/11/05 09:07:28;;;;;;;8.15;3.47;;;10.30;99.90;;;;;;5089753;28;20071;-87
2022/11/05 09:09:54;;;;;;;4.90;3.10;;;10.00;99.90;;;;;;5055784;28;20058;-89
2022/11/05 09:12:19;;;;;;;3.95;3.38;;;10.00;99.90;;;;;;5086816;28;20036;-88
2022/11/05 09:14:45;;;;;;;5.88;3.50;;;9.90;99.90;;;;;;5089719;28;20521;-89
2022/11/05 09:17:18;;;;;;;5.40;3.70;;;10.00;99.90;;;;;;5100558;28;20044;-87
2022/11/05 09:19:43;;;;;;;9.98;3.80;;;10.10;99.90;;;;;;5104435;28;20078;-84
2022/11/05 09:22:11;;;;;;;4.45;3.55;;;10.20;99.90;;;;;;5079511;28;20035;-86
2022/11/05 09:24:38;;;;;;;5.28;3.28;;;10.20;99.90;;;;;;5099098;28;20051;-87
2022/11/05 09:27:04;;;;;;;10.15;4.13;;;10.10;99.90;;;;;;5090046;28;20063;-85
2022/11/05 09:29:30;;;;;;;9.90;4.00;;;10.10;99.90;;;;;;5113759;28;20043;-86
2022/11/05 09:31:56;;;;;;;5.57;4.03;;;10.00;99.90;;;;;;5067663;28;20044;-87
2022/11/05 09:34:22;;;;;;;7.82;3.60;;;9.90;99.90;;;;;;5113390;28;20047;-86
2022/11/05 09:36:48;;;;;;;6.47;4.20;;;10.00;99.90;;;;;;5062716;28;20395;-86
2022/11/05 09:39:13;;;;;;;5.63;3.20;;;10.10;99.90;;;;;;5077777;28;20039;-88
2022/11/05 09:41:39;;;;;;;7.15;3.75;;;10.30;99.90;;;;;;5094089;28;20079;-87
2022/11/05 09:44:11;;;;;;;4.88;3.65;;;10.40;99.90;;;;;;5088848;28;20044;-86
2022/11/05 09:46:48;;;;;;;7.22;3.97;;;10.40;99.90;;;;;;5101029;28;20162;-86
2022/11/05 09:49:24;;;;;;;5.70;3.78;;;10.40;99.90;;;;;;5073999;28;20432;-84
2022/11/05 09:51:54;;;;;;;5.55;4.20;;;10.40;99.90;;;;;;5092827;28;20113;-87
2022/11/05 09:54:22;;;;;;;3.95;3.40;;;10.30;99.90;;;;;;5069462;28;20150;-86
2022/11/05 09:56:48;;;;;;;4.60;3.60;;;10.30;99.90;;;;;;5073767;28;20047;-86
2022/11/05 09:59:25;;;;;;;6.38;3.90;;;10.40;99.90;;;;;;5059706;28;20498;-87
2022/11/05 10:01:53;;;;;;;7.78;3.75;;;10.30;99.90;;;;;;5069407;28;20040;-85
2022/11/05 10:04:21;;;;;;;5.40;3.58;;;10.30;99.90;;;;;;5081951;28;20020;-83
2022/11/05 10:07:05;;;;;;;4.93;3.38;;;10.40;99.90;;;;;;5093845;28;20038;-83
2022/11/05 10:09:41;;;;;;;6.07;3.75;;;10.40;99.90;;;;;;5092252;28;20036;-83
2022/11/05 10:12:23;;;;;;;5.25;3.45;;;10.50;99.90;;;;;;5084449;28;20103;-83
2022/11/05 10:15:29;;;;;;;6.93;3.83;;;10.70;99.90;;;;;;5076050;28;20040;-84
2022/11/05 10:18:10;;;;;;;9.95;3.30;;;10.80;99.90;;;;;;5056728;28;20399;-86
2022/11/05 10:20:37;;;;;;;6.97;3.30;;;10.90;99.90;;;;;;5061415;28;20122;-84
2022/11/05 10:23:13;;;;;;;6.85;3.10;;;10.90;99.90;;;;;;5060177;28;20067;-90
2022/11/05 10:25:41;;;;;;;4.15;2.92;;;11.00;99.90;;;;;;5044484;28;20090;-89
2022/11/05 10:28:08;;;;;;;5.65;3.13;;;11.00;99.90;;;;;;5064619;28;20036;-84
2022/11/05 10:30:34;;;;;;;4.50;2.95;;;11.00;99.90;;;;;;5079808;28;20059;-84
2022/11/05 10:33:02;;;;;;;6.45;2.90;;;11.00;99.90;;;;;;5079209;28;20046;-85
2022/11/05 10:35:29;;;;;;;6.25;3.40;;;11.20;99.90;;;;;;5079079;28;20527;-84
2022/11/05 10:37:55;;;;;;;6.25;2.90;;;11.30;99.90;;;;;;5078794;28;20063;-84
2022/11/05 10:40:51;;;;;;;5.45;2.80;;;11.30;99.90;;;;;;5103938;28;20029;-84
2022/11/05 10:43:35;;;;;;;5.13;2.75;;;11.30;99.90;;;;;;5091794;28;20475;-84
2022/11/05 10:46:26;;;;;;;5.27;2.93;;;11.30;99.90;;;;;;5064635;28;20050;-86
2022/11/05 10:49:14;;;;;;;2.95;2.20;;;11.40;99.90;;;;;;5080559;28;20538;-85
2022/11/05 10:51:39;;;;;;;4.95;2.65;;;11.40;99.90;;;;;;5110215;28;20155;-84
2022/11/05 10:54:15;;;;;;;5.70;3.15;;;11.40;99.90;;;;;;5086852;28;20543;-83
2022/11/05 10:56:41;;;;;;;4.05;2.40;;;11.40;99.90;;;;;;5089592;28;20062;-83
2022/11/05 10:59:23;;;;;;;6.55;2.50;;;11.50;99.90;;;;;;5057515;28;20039;-83
2022/11/05 11:02:00;;;;;;;4.90;2.47;;;11.40;99.90;;;;;;5100213;28;20552;-83
2022/11/05 11:04:26;;;;;;;4.32;2.15;;;11.50;99.90;;;;;;5070044;28;20052;-83
2022/11/05 11:06:56;;;;;;;4.78;2.25;;;11.60;99.90;;;;;;5063777;28;20365;-84
2022/11/05 11:09:27;;;;;;;4.90;2.50;;;11.60;99.90;;;;;;5042317;28;20047;-82
2022/11/05 11:12:05;;;;;;;6.95;2.30;;;11.70;99.90;;;;;;5058984;28;20067;-84
2022/11/05 11:14:30;;;;;;;5.18;2.42;;;11.70;99.90;;;;;;5060239;28;20056;-84
2022/11/05 11:17:15;;;;;;;6.03;2.55;;;11.70;99.90;;;;;;5074804;28;20055;-82
2022/11/05 11:19:41;;;;;;;3.50;2.10;;;11.70;99.90;;;;;;5074981;28;20117;-83
2022/11/05 11:22:06;;;;;;;3.63;2.33;;;11.70;99.90;;;;;;5089964;28;20025;-86
2022/11/05 11:24:41;;;;;;;4.32;2.00;;;11.70;99.90;;;;;;5115940;28;20020;-83
2022/11/05 11:27:19;;;;;;;6.15;2.70;;;11.80;99.90;;;;;;5078208;28;20066;-83
2022/11/05 11:29:53;;;;;;;4.10;2.10;;;11.80;99.90;;;;;;5062320;28;20044;-83
2022/11/05 11:32:19;;;;;;;4.15;2.20;;;11.90;99.90;;;;;;5046501;28;20553;-85
2022/11/05 11:34:47;;;;;;;6.95;1.90;;;11.90;99.90;;;;;;5092069;28;20056;-84
2022/11/05 11:37:19;;;;;;;2.90;1.70;;;12.00;99.90;;;;;;5058580;28;20055;-83
2022/11/05 11:39:59;;;;;;;3.80;1.77;;;12.10;99.90;;;;;;5075913;28;20133;-83
2022/11/05 11:42:31;;;;;;;3.00;1.73;;;12.30;99.90;;;;;;5075485;28;20044;-82
2022/11/05 11:44:58;;;;;;;2.85;1.52;;;12.30;99.90;;;;;;5074727;28;20052;-83
2022/11/05 11:47:26;;;;;;;2.58;1.67;;;12.40;99.90;;;;;;5058258;28;20056;-85
2022/11/05 11:49:59;;;;;;;5.25;2.00;;;12.40;99.90;;;;;;5074491;28;20059;-83
2022/11/05 11:52:33;;;;;;;1.67;1.42;;;12.40;99.90;;;;;;5074216;28;20051;-83
2022/11/05 11:55:11;;;;;;;4.10;1.98;;;12.50;99.90;;;;;;5041237;28;20047;-83
2022/11/05 11:57:45;;;;;;;3.85;1.92;;;12.50;99.90;;;;;;5081503;28;20075;-83
2022/11/05 12:00:11;;;;;;;4.43;1.70;;;12.40;99.90;;;;;;5082596;28;20028;-84
2022/11/05 12:02:59;;;;;;;3.30;1.55;;;12.50;99.90;;;;;;5052105;28;20087;-85
2022/11/05 12:05:43;;;;;;;2.75;1.63;;;12.50;99.90;;;;;;5058541;28;20055;-83
2022/11/05 12:08:12;;;;;;;4.90;1.70;;;12.40;99.90;;;;;;5042483;28;20050;-83
2022/11/05 12:10:49;;;;;;;4.68;1.77;;;12.30;99.90;;;;;;5058056;28;20527;-83
2022/11/05 12:13:18;;;;;;;2.95;1.40;;;12.20;99.90;;;;;;5057887;28;20052;-83
2022/11/05 12:16:03;;;;;;;2.28;1.40;;;12.00;99.90;;;;;;5075307;28;20051;-83
2022/11/05 12:18:44;;;;;;;3.08;1.80;;;11.90;99.90;;;;;;5065924;28;20047;-83
2022/11/05 12:21:17;;;;;;;1.98;1.27;;;11.70;99.90;;;;;;5043453;28;20377;-82
2022/11/05 12:24:05;;;;;;;3.38;1.70;;;11.70;99.90;;;;;;5062825;28;20577;-82
2022/11/05 12:26:40;;;;;;;3.05;1.38;;;11.70;99.90;;;;;;5071350;28;20043;-82
2022/11/05 12:29:44;;;;;;;3.20;1.70;;;11.70;99.90;;;;;;5050466;28;20052;-82
2022/11/05 12:32:47;;;;;;;3.05;1.50;;;11.80;99.90;;;;;;5074623;28;20135;-82
2022/11/05 12:35:31;;;;;;;3.33;1.50;;;11.90;99.90;;;;;;5081580;28;20043;-82
2022/11/05 12:38:30;;;;;;;3.45;1.52;;;11.90;99.90;;;;;;5090214;28;20127;-82
2022/11/05 12:40:59;;;;;;;3.53;1.98;;;12.00;99.90;;;;;;5089152;28;20051;-82
2022/11/05 12:43:48;;;;;;;4.20;1.50;;;12.00;99.90;;;;;;5095810;28;20036;-82
2022/11/05 12:46:35;;;;;;;3.00;1.75;;;12.00;99.90;;;;;;5067288;28;20328;-82
2022/11/05 12:49:01;;;;;;;1.63;1.42;;;12.00;99.90;;;;;;5069139;28;20047;-82
2022/11/05 12:52:01;;;;;;;5.10;2.10;;;12.00;99.90;;;;;;5082645;28;20097;-82
2022/11/05 12:54:29;;;;;;;5.25;2.28;;;11.90;99.90;;;;;;5084399;28;20051;-82
2022/11/05 12:56:57;;;;;;;4.22;1.90;;;12.00;99.90;;;;;;5084647;28;20054;-82
2022/11/05 12:59:45;;;;;;;3.80;1.70;;;11.90;99.90;;;;;;5032819;28;20044;-82
2022/11/05 13:02:32;;;;;;;4.38;2.00;;;11.80;99.90;;;;;;5089484;28;20046;-82
2022/11/05 13:05:15;;;;;;;3.03;1.80;;;11.80;99.90;;;;;;5067687;28;20104;-82
2022/11/05 13:08:06;;;;;;;4.40;1.88;;;11.70;99.90;;;;;;5068477;28;20051;-82
2022/11/05 13:10:42;;;;;;;3.35;1.30;;;11.70;99.90;;;;;;5066509;28;20061;-83
2022/11/05 13:13:38;;;;;;;2.78;1.60;;;11.80;99.90;;;;;;5052966;28;20087;-82
2022/11/05 13:16:57;;;;;;;4.32;1.73;;;11.70;99.90;;;;;;5069473;28;20044;-82
2022/11/05 13:19:35;;;;;;;4.85;1.80;;;11.70;99.90;;;;;;5063361;28;20039;-82
2022/11/05 13:22:16;;;;;;;3.10;2.17;;;11.70;99.90;;;;;;5053701;28;20131;-82
2022/11/05 13:24:50;;;;;;;5.68;1.95;;;11.70;99.90;;;;;;5089047;28;20043;-82
2022/11/05 13:27:25;;;;;;;4.35;2.10;;;11.80;99.90;;;;;;5069851;28;20544;-82
2022/11/05 13:30:01;;;;;;;3.13;2.00;;;11.70;99.90;;;;;;5052291;28;20043;-82
2022/11/05 13:32:27;;;;;;;5.32;2.63;;;11.60;99.90;;;;;;5054736;28;20099;-82
2022/11/05 13:35:03;;;;;;;4.95;2.70;;;11.60;99.90;;;;;;5078589;28;20480;-82
2022/11/05 13:40:23;;;;;;;7.38;2.80;;;11.70;99.90;;;;;;5068954;28;20055;-83
2022/11/05 13:43:01;;;;;;;5.70;2.85;;;11.70;99.90;;;;;;5081356;28;20498;-83
2022/11/05 13:45:37;;;;;;;5.50;2.75;;;11.70;99.90;;;;;;5080324;28;20492;-83
2022/11/05 13:48:12;;;;;;;5.40;3.05;;;11.70;99.90;;;;;;5080538;28;20082;-83
2022/11/05 13:50:59;;;;;;;5.32;2.90;;;11.70;99.90;;;;;;5070410;28;20091;-83
2022/11/05 13:53:43;;;;;;;6.90;3.05;;;11.60;99.90;;;;;;5121893;28;20111;-82
2022/11/05 13:56:30;;;;;;;5.53;2.67;;;11.70;99.90;;;;;;5136659;28;20043;-83